createdAt,value
2018-12-06T00:00:05.817Z,2.64
2018-12-06T00:02:34.865Z,2.61
2018-12-06T00:05:03.924Z,2.58
2018-12-06T00:07:33.006Z,2.54
2018-12-06T00:10:02.056Z,2.54
2018-12-06T00:12:31.117Z,2.51
2018-12-06T00:15:07.949Z,2.49
2018-12-06T00:17:37.004Z,2.45
2018-12-06T00:20:06.065Z,2.43
2018-12-06T00:22:35.148Z,2.40
2018-12-06T00:25:05.161Z,2.39
2018-12-06T00:27:34.214Z,2.37
2018-12-06T00:30:11.701Z,2.35
2018-12-06T00:32:40.745Z,2.32
2018-12-06T00:35:09.787Z,2.32
2018-12-06T00:37:38.863Z,2.31
2018-12-06T00:40:07.917Z,2.31
2018-12-06T00:42:36.961Z,2.31
2018-12-06T00:45:06.035Z,2.30
2018-12-06T00:47:35.094Z,2.30
2018-12-06T00:50:04.136Z,2.30
2018-12-06T00:52:33.228Z,2.30
2018-12-06T00:55:02.280Z,2.28
2018-12-06T00:57:31.338Z,2.28
2018-12-06T01:00:00.417Z,2.26
2018-12-06T01:02:29.506Z,2.25
2018-12-06T01:05:13.015Z,2.22
2018-12-06T01:07:42.061Z,2.15
2018-12-06T01:10:11.123Z,2.11
2018-12-06T01:12:40.332Z,2.05
2018-12-06T01:15:09.386Z,2.01
2018-12-06T01:17:38.452Z,1.96
2018-12-06T01:20:07.527Z,1.92
2018-12-06T01:22:36.580Z,1.88
2018-12-06T01:25:05.643Z,1.84
2018-12-06T01:27:34.732Z,1.80
2018-12-06T01:30:03.792Z,1.74
2018-12-06T01:32:32.840Z,1.69
2018-12-06T01:35:06.175Z,1.61
2018-12-06T01:37:35.268Z,1.53
2018-12-06T01:40:04.328Z,1.46
2018-12-06T01:42:33.493Z,1.40
2018-12-06T01:45:22.726Z,1.36
2018-12-06T01:47:51.807Z,1.30
2018-12-06T01:50:20.888Z,1.21
2018-12-06T01:52:49.911Z,1.14
2018-12-06T01:55:19.023Z,1.06
2018-12-06T01:57:48.072Z,0.99
2018-12-06T02:00:17.118Z,0.93
2018-12-06T02:02:46.200Z,0.85
2018-12-06T02:05:15.255Z,0.79
2018-12-06T02:07:44.311Z,0.75
2018-12-06T02:10:13.387Z,0.72
2018-12-06T02:12:42.437Z,0.67
2018-12-06T02:15:18.624Z,0.63
2018-12-06T02:17:47.676Z,0.58
2018-12-06T02:20:16.742Z,0.55
2018-12-06T02:22:45.830Z,0.52
2018-12-06T02:25:14.894Z,0.47
2018-12-06T02:27:43.957Z,0.43
2018-12-06T02:30:13.053Z,0.39
2018-12-06T02:32:42.101Z,0.35
2018-12-06T02:35:11.157Z,0.31
2018-12-06T02:37:40.261Z,0.27
2018-12-06T02:40:09.327Z,0.24
2018-12-06T02:42:38.383Z,0.23
2018-12-06T02:45:25.473Z,0.21
2018-12-06T02:47:54.546Z,0.18
2018-12-06T02:50:23.614Z,0.17
2018-12-06T02:52:52.847Z,0.12
2018-12-06T02:55:21.910Z,0.07
2018-12-06T02:57:50.988Z,0.05
2018-12-06T03:00:20.108Z,0.03
2018-12-06T03:02:49.169Z,0.04
2018-12-06T03:05:18.232Z,0.06
2018-12-06T03:07:47.318Z,0.06
2018-12-06T03:10:16.387Z,0.10
2018-12-06T03:12:45.462Z,0.09
2018-12-06T03:15:14.567Z,0.09
2018-12-06T03:17:43.626Z,0.07
2018-12-06T03:20:12.690Z,0.06
2018-12-06T03:22:41.844Z,0.07
2018-12-06T03:25:10.909Z,0.04
2018-12-06T03:27:39.973Z,0.05
2018-12-06T03:30:09.058Z,0.07
2018-12-06T03:32:38.120Z,0.08
2018-12-06T03:35:07.188Z,0.08
2018-12-06T03:37:36.285Z,0.06
2018-12-06T03:40:05.345Z,0.07
2018-12-06T03:42:34.417Z,0.09
2018-12-06T03:45:03.515Z,0.10
2018-12-06T03:47:32.578Z,0.13
2018-12-06T03:50:01.623Z,0.14
2018-12-06T03:52:30.715Z,0.16
2018-12-06T03:55:00.766Z,0.17
2018-12-06T03:57:29.829Z,0.16
2018-12-06T03:59:58.932Z,0.16
2018-12-06T04:02:27.995Z,0.19
2018-12-06T04:04:58.092Z,0.22
2018-12-06T04:07:27.208Z,0.27
2018-12-06T04:09:56.260Z,0.31
2018-12-06T04:12:25.329Z,0.35
2018-12-06T04:14:54.417Z,0.37
2018-12-06T04:17:23.471Z,0.41
2018-12-06T04:19:52.524Z,0.43
2018-12-06T04:22:21.621Z,0.46
2018-12-06T04:24:50.674Z,0.49
2018-12-06T04:27:19.735Z,0.52
2018-12-06T04:29:48.819Z,0.54
2018-12-06T04:32:17.889Z,0.55
2018-12-06T04:34:46.961Z,0.58
2018-12-06T04:37:16.047Z,0.56
2018-12-06T04:39:45.133Z,0.51
2018-12-06T04:42:14.192Z,0.52
2018-12-06T04:44:43.326Z,0.50
2018-12-06T04:47:14.251Z,0.55
2018-12-06T04:49:41.441Z,0.60
2018-12-06T04:52:10.523Z,0.67
2018-12-06T04:54:39.579Z,0.72
2018-12-06T04:57:08.625Z,0.76
2018-12-06T04:59:37.710Z,0.79
2018-12-06T05:02:06.759Z,0.83
2018-12-06T05:04:35.815Z,0.86
2018-12-06T05:07:04.933Z,0.89
2018-12-06T05:09:34.018Z,0.92
2018-12-06T05:12:03.098Z,0.96
2018-12-06T05:14:32.184Z,0.98
2018-12-06T05:17:01.256Z,1.00
2018-12-06T05:19:30.319Z,1.00
2018-12-06T05:21:59.409Z,1.02
2018-12-06T05:24:28.471Z,1.06
2018-12-06T05:26:57.553Z,1.09
2018-12-06T05:29:26.682Z,1.10
2018-12-06T05:31:55.748Z,1.11
2018-12-06T05:34:24.813Z,1.13
2018-12-06T05:36:53.892Z,1.03
2018-12-06T05:39:22.946Z,1.06
2018-12-06T05:41:52.028Z,1.13
2018-12-06T05:44:21.103Z,1.18
2018-12-06T05:46:50.167Z,1.21
2018-12-06T05:49:19.215Z,1.25
2018-12-06T05:51:48.343Z,1.28
2018-12-06T05:54:17.441Z,1.29
2018-12-06T05:56:46.486Z,1.33
2018-12-06T05:59:15.893Z,1.34
2018-12-06T06:01:44.952Z,1.39
2018-12-06T06:04:14.026Z,1.45
2018-12-06T06:06:43.123Z,1.51
2018-12-06T06:09:12.194Z,1.60
2018-12-06T06:11:41.256Z,1.64
2018-12-06T06:14:10.365Z,1.70
2018-12-06T06:16:39.458Z,1.73
2018-12-06T06:19:08.479Z,1.79
2018-12-06T06:21:37.565Z,1.87
2018-12-06T06:24:06.610Z,1.90
2018-12-06T06:26:35.672Z,1.89
2018-12-06T06:29:04.757Z,1.93
2018-12-06T06:31:33.838Z,1.94
2018-12-06T06:34:02.909Z,1.96
2018-12-06T06:36:31.999Z,2.00
2018-12-06T06:39:01.062Z,2.00
2018-12-06T06:41:30.109Z,2.05
2018-12-06T06:43:59.194Z,2.11
2018-12-06T06:46:28.263Z,2.18
2018-12-06T06:48:57.330Z,2.22
2018-12-06T06:51:26.420Z,2.39
2018-12-06T06:53:55.508Z,2.45
2018-12-06T06:56:24.576Z,2.47
2018-12-06T06:58:53.725Z,2.43
2018-12-06T07:01:23.027Z,2.48
2018-12-06T07:03:51.872Z,2.53
2018-12-06T07:06:20.982Z,2.57
2018-12-06T07:08:50.074Z,2.64
2018-12-06T07:11:19.137Z,2.67
2018-12-06T07:13:48.291Z,2.61
2018-12-06T07:16:17.377Z,2.66
2018-12-06T07:18:46.456Z,2.72
2018-12-06T07:21:15.659Z,2.79
2018-12-06T07:23:44.707Z,2.84
2018-12-06T07:26:13.788Z,2.86
2018-12-06T07:28:42.978Z,2.93
2018-12-06T07:31:12.110Z,3.01
2018-12-06T07:33:41.160Z,3.05
2018-12-06T07:36:10.258Z,3.05
2018-12-06T07:38:39.320Z,3.13
2018-12-06T07:41:08.395Z,3.24
2018-12-06T07:43:37.546Z,3.31
2018-12-06T07:46:08.585Z,3.41
2018-12-06T07:48:39.426Z,3.52
2018-12-06T07:51:06.741Z,3.62
2018-12-06T07:53:35.827Z,3.69
2018-12-06T07:56:04.917Z,3.76
2018-12-06T07:58:33.985Z,3.85
2018-12-06T08:01:03.049Z,3.96
2018-12-06T08:03:32.100Z,4.05
2018-12-06T08:06:01.222Z,4.10
2018-12-06T08:08:30.282Z,4.18
2018-12-06T08:11:00.110Z,4.26
2018-12-06T08:13:29.214Z,4.35
2018-12-06T08:15:58.702Z,4.42
2018-12-06T08:18:27.759Z,4.49
2018-12-06T08:20:56.834Z,4.60
2018-12-06T08:23:25.884Z,4.76
2018-12-06T08:25:54.951Z,4.95
2018-12-06T08:28:24.055Z,5.05
2018-12-06T08:30:53.114Z,5.13
2018-12-06T08:33:22.161Z,5.15
2018-12-06T08:35:51.264Z,5.17
2018-12-06T08:38:20.322Z,5.17
2018-12-06T08:40:49.398Z,5.23
2018-12-06T08:43:18.462Z,5.23
2018-12-06T08:45:47.748Z,5.26
2018-12-06T08:48:16.585Z,5.30
2018-12-06T08:50:45.707Z,5.33
2018-12-06T08:53:14.775Z,5.34
2018-12-06T08:55:43.836Z,5.36
2018-12-06T08:58:13.658Z,5.38
2018-12-06T09:00:42.711Z,5.41
2018-12-06T09:03:11.775Z,5.43
2018-12-06T09:05:41.784Z,5.44
2018-12-06T09:08:10.986Z,5.50
2018-12-06T09:10:40.985Z,5.52
2018-12-06T09:13:10.103Z,5.55
2018-12-06T09:15:53.708Z,5.55
2018-12-06T09:18:22.859Z,5.56
2018-12-06T09:20:51.851Z,5.58
2018-12-06T09:23:20.915Z,5.59
2018-12-06T09:25:50.012Z,5.61
2018-12-06T09:28:19.067Z,5.62
2018-12-06T09:30:48.138Z,5.62
2018-12-06T09:33:17.263Z,5.65
2018-12-06T09:35:46.313Z,5.66
2018-12-06T09:38:15.385Z,5.66
2018-12-06T09:40:44.492Z,5.67
2018-12-06T09:43:13.579Z,5.68
2018-12-06T09:45:43.670Z,5.61
2018-12-06T09:48:12.744Z,5.64
2018-12-06T09:50:41.815Z,5.64
2018-12-06T09:53:10.886Z,5.66
2018-12-06T09:55:39.989Z,5.66
2018-12-06T09:58:09.061Z,5.69
2018-12-06T10:00:38.117Z,5.72
2018-12-06T10:03:07.207Z,5.73
2018-12-06T10:05:46.842Z,5.74
2018-12-06T10:08:15.925Z,5.71
2018-12-06T10:10:44.986Z,5.69
2018-12-06T10:13:14.038Z,5.72
2018-12-06T10:15:43.124Z,5.76
2018-12-06T10:18:12.214Z,5.80
2018-12-06T10:20:41.285Z,5.85
2018-12-06T10:23:10.372Z,5.83
2018-12-06T10:25:40.470Z,5.88
2018-12-06T10:28:09.528Z,5.91
2018-12-06T10:30:38.679Z,5.90
2018-12-06T10:33:07.725Z,5.91
2018-12-06T10:35:36.780Z,5.94
2018-12-06T10:38:05.913Z,5.90
2018-12-06T10:40:34.958Z,5.92
2018-12-06T10:43:04.005Z,5.87
2018-12-06T10:45:33.079Z,5.87
2018-12-06T10:48:02.133Z,5.81
2018-12-06T10:50:31.188Z,5.81
2018-12-06T10:53:00.264Z,5.85
2018-12-06T10:55:29.308Z,5.81
2018-12-06T10:57:58.377Z,5.81
2018-12-06T11:00:33.235Z,5.70
2018-12-06T11:03:03.108Z,5.74
2018-12-06T11:05:32.168Z,5.76
2018-12-06T11:08:01.259Z,5.70
2018-12-06T11:10:30.334Z,5.69
2018-12-06T11:12:59.386Z,5.65
2018-12-06T11:15:28.468Z,5.67
2018-12-06T11:17:57.520Z,5.69
2018-12-06T11:20:26.579Z,5.67
2018-12-06T11:22:55.913Z,5.69
2018-12-06T11:25:24.965Z,5.67
2018-12-06T11:27:54.021Z,5.64
2018-12-06T11:30:23.248Z,5.64
2018-12-06T11:32:52.289Z,5.59
2018-12-06T11:35:21.342Z,5.55
2018-12-06T11:37:50.430Z,5.54
2018-12-06T11:40:19.484Z,5.55
2018-12-06T11:42:48.556Z,5.55
2018-12-06T11:45:17.682Z,5.52
2018-12-06T11:47:46.750Z,5.53
2018-12-06T11:50:15.793Z,5.46
2018-12-06T11:52:44.893Z,5.46
2018-12-06T11:55:13.963Z,5.48
2018-12-06T11:57:42.996Z,5.47
2018-12-06T12:00:12.083Z,5.50
2018-12-06T12:02:41.124Z,5.51
2018-12-06T12:05:10.169Z,5.49
2018-12-06T12:07:40.091Z,5.47
2018-12-06T12:10:09.160Z,5.49
2018-12-06T12:12:38.206Z,5.45
2018-12-06T12:15:07.299Z,5.43
2018-12-06T12:17:36.367Z,5.46
2018-12-06T12:20:05.557Z,5.49
2018-12-06T12:22:34.523Z,5.46
2018-12-06T12:25:03.585Z,5.46
2018-12-06T12:27:32.637Z,5.44
2018-12-06T12:30:01.729Z,5.43
2018-12-06T12:32:30.791Z,5.46
2018-12-06T12:34:59.853Z,5.46
2018-12-06T12:37:29.219Z,5.47
2018-12-06T12:39:58.286Z,5.47
2018-12-06T12:42:27.338Z,5.45
2018-12-06T12:44:56.429Z,5.49
2018-12-06T12:47:25.518Z,5.43
2018-12-06T12:49:54.559Z,5.46
2018-12-06T12:52:23.650Z,5.43
2018-12-06T12:54:52.693Z,5.45
2018-12-06T12:57:21.766Z,5.44
2018-12-06T12:59:50.845Z,5.43
2018-12-06T13:02:19.900Z,5.45
2018-12-06T13:04:48.957Z,5.41
2018-12-06T13:07:18.051Z,5.49
2018-12-06T13:09:47.126Z,5.42
2018-12-06T13:12:16.190Z,5.45
2018-12-06T13:14:45.321Z,5.43
2018-12-06T13:17:14.372Z,5.42
2018-12-06T13:19:43.434Z,5.42
2018-12-06T13:22:12.524Z,5.37
2018-12-06T13:24:41.572Z,5.38
2018-12-06T13:27:10.621Z,5.35
2018-12-06T13:29:39.698Z,5.33
2018-12-06T13:32:08.765Z,5.24
2018-12-06T13:34:37.832Z,5.22
2018-12-06T13:37:06.941Z,5.19
2018-12-06T13:39:36.004Z,5.19
2018-12-06T13:42:05.085Z,5.20
2018-12-06T13:44:34.168Z,5.16
2018-12-06T13:47:03.252Z,5.14
2018-12-06T13:49:32.301Z,5.11
2018-12-06T13:52:01.388Z,5.10
2018-12-06T13:54:30.446Z,5.04
2018-12-06T13:56:59.503Z,5.05
2018-12-06T13:59:28.645Z,5.04
2018-12-06T14:01:57.708Z,5.04
2018-12-06T14:04:26.763Z,4.99
2018-12-06T14:06:55.961Z,5.01
2018-12-06T14:09:25.012Z,5.00
2018-12-06T14:11:54.086Z,4.94
2018-12-06T14:14:23.166Z,4.93
2018-12-06T14:16:52.212Z,4.90
2018-12-06T14:19:21.268Z,4.85
2018-12-06T14:21:50.365Z,4.82
2018-12-06T14:24:19.425Z,4.81
2018-12-06T14:26:48.495Z,4.79
2018-12-06T14:29:17.667Z,4.75
2018-12-06T14:31:46.718Z,4.69
2018-12-06T14:34:15.757Z,4.72
2018-12-06T14:36:44.849Z,4.66
2018-12-06T14:39:13.911Z,4.64
2018-12-06T14:41:42.970Z,4.61
2018-12-06T14:44:12.075Z,4.57
2018-12-06T14:46:41.157Z,4.58
2018-12-06T14:49:10.227Z,4.49
2018-12-06T14:51:39.314Z,4.51
2018-12-06T14:54:08.376Z,4.47
2018-12-06T14:56:37.422Z,4.46
2018-12-06T14:59:06.509Z,4.48
2018-12-06T15:01:35.566Z,4.47
2018-12-06T15:04:04.628Z,4.39
2018-12-06T15:06:37.553Z,4.37
2018-12-06T15:09:02.783Z,4.34
2018-12-06T15:11:31.839Z,4.38
2018-12-06T15:14:00.936Z,4.39
2018-12-06T15:16:30.016Z,4.33
2018-12-06T15:18:59.062Z,4.35
2018-12-06T15:21:28.139Z,4.34
2018-12-06T15:23:57.186Z,4.37
2018-12-06T15:26:26.235Z,4.38
2018-12-06T15:28:55.437Z,4.36
2018-12-06T15:31:24.508Z,4.30
2018-12-06T15:33:53.570Z,4.28
2018-12-06T15:36:22.658Z,4.34
2018-12-06T15:38:51.712Z,4.34
2018-12-06T15:41:20.765Z,4.32
2018-12-06T15:43:49.929Z,4.26
2018-12-06T15:46:18.915Z,4.29
2018-12-06T15:48:47.981Z,4.31
2018-12-06T15:51:17.178Z,4.32
2018-12-06T15:53:46.227Z,4.32
2018-12-06T15:56:15.288Z,4.29
2018-12-06T15:58:44.376Z,4.22
2018-12-06T16:01:13.454Z,4.24
2018-12-06T16:03:42.524Z,4.22
2018-12-06T16:06:11.606Z,4.27
2018-12-06T16:08:40.668Z,4.32
2018-12-06T16:11:09.741Z,4.33
2018-12-06T16:13:38.863Z,4.35
2018-12-06T16:16:07.929Z,4.38
2018-12-06T16:18:36.992Z,4.35
2018-12-06T16:21:06.071Z,4.42
2018-12-06T16:23:35.130Z,4.44
2018-12-06T16:26:04.187Z,4.41
2018-12-06T16:28:33.284Z,4.42
2018-12-06T16:31:02.345Z,4.46
2018-12-06T16:33:31.394Z,4.46
2018-12-06T16:36:00.504Z,4.46
2018-12-06T16:38:29.604Z,4.49
2018-12-06T16:40:58.641Z,4.47
2018-12-06T16:43:27.722Z,4.49
2018-12-06T16:45:56.773Z,4.35
2018-12-06T16:48:25.825Z,4.42
2018-12-06T16:50:54.919Z,4.47
2018-12-06T16:53:23.984Z,4.50
2018-12-06T16:55:53.049Z,4.50
2018-12-06T16:58:22.178Z,4.47
2018-12-06T17:00:51.237Z,4.52
2018-12-06T17:03:20.289Z,4.50
2018-12-06T17:05:49.377Z,4.55
2018-12-06T17:08:18.450Z,4.57
2018-12-06T17:10:47.491Z,4.59
2018-12-06T17:13:16.594Z,4.62
2018-12-06T17:15:45.657Z,4.62
2018-12-06T17:18:14.735Z,4.62
2018-12-06T17:20:43.873Z,4.61
2018-12-06T17:23:12.944Z,4.63
2018-12-06T17:25:42.009Z,4.63
2018-12-06T17:28:11.091Z,4.62
2018-12-06T17:30:40.152Z,4.62
2018-12-06T17:33:09.218Z,4.60
2018-12-06T17:35:38.308Z,4.62
2018-12-06T17:38:07.374Z,4.56
2018-12-06T17:40:36.435Z,4.54
2018-12-06T17:43:05.540Z,4.49
2018-12-06T17:45:34.594Z,4.48
2018-12-06T17:48:03.645Z,4.45
2018-12-06T17:50:32.735Z,4.43
2018-12-06T17:53:01.781Z,4.35
2018-12-06T17:55:30.841Z,4.38
2018-12-06T17:57:59.936Z,4.39
2018-12-06T18:00:29.014Z,4.39
2018-12-06T18:02:58.070Z,4.37
2018-12-06T18:05:27.403Z,4.32
2018-12-06T18:07:56.456Z,4.23
2018-12-06T18:10:25.517Z,4.15
2018-12-06T18:12:54.615Z,4.20
2018-12-06T18:15:23.672Z,4.21
2018-12-06T18:17:52.715Z,4.21
2018-12-06T18:20:21.871Z,4.22
2018-12-06T18:22:50.931Z,4.22
2018-12-06T18:25:22.071Z,4.19
2018-12-06T18:27:51.135Z,4.21
2018-12-06T18:30:20.191Z,4.16
2018-12-06T18:32:49.273Z,4.19
2018-12-06T18:35:18.346Z,4.17
2018-12-06T18:37:47.417Z,4.08
2018-12-06T18:40:16.526Z,4.08
2018-12-06T18:42:45.590Z,4.01
2018-12-06T18:45:14.654Z,4.02
2018-12-06T18:47:43.774Z,4.02
2018-12-06T18:50:12.831Z,4.05
2018-12-06T18:52:41.895Z,4.05
2018-12-06T18:55:11.067Z,4.02
2018-12-06T18:57:40.047Z,3.98
2018-12-06T19:00:09.139Z,3.95
2018-12-06T19:02:38.230Z,3.95
2018-12-06T19:05:07.293Z,3.96
2018-12-06T19:07:36.362Z,3.96
2018-12-06T19:10:05.479Z,3.94
2018-12-06T19:12:34.537Z,3.96
2018-12-06T19:15:03.619Z,3.97
2018-12-06T19:17:32.693Z,3.97
2018-12-06T19:20:01.750Z,3.95
2018-12-06T19:22:30.826Z,3.96
2018-12-06T19:24:59.915Z,3.93
2018-12-06T19:27:28.976Z,3.90
2018-12-06T19:29:58.025Z,3.95
2018-12-06T19:32:27.135Z,3.92
2018-12-06T19:34:56.195Z,3.90
2018-12-06T19:37:25.253Z,3.91
2018-12-06T19:39:54.323Z,3.91
2018-12-06T19:42:23.380Z,3.92
2018-12-06T19:44:53.391Z,3.85
2018-12-06T19:47:22.478Z,3.88
2018-12-06T19:49:51.918Z,3.87
2018-12-06T19:52:20.969Z,3.86
2018-12-06T19:54:50.111Z,3.83
2018-12-06T19:57:19.168Z,3.81
2018-12-06T19:59:48.232Z,3.80
2018-12-06T20:02:17.403Z,3.74
2018-12-06T20:04:46.475Z,3.75
2018-12-06T20:07:15.527Z,3.81
2018-12-06T20:09:44.615Z,3.83
2018-12-06T20:12:13.687Z,3.86
2018-12-06T20:14:42.756Z,3.85
2018-12-06T20:17:11.856Z,3.86
2018-12-06T20:19:40.937Z,3.87
2018-12-06T20:22:10.117Z,3.89
2018-12-06T20:24:39.204Z,3.92
2018-12-06T20:27:08.278Z,3.89
2018-12-06T20:29:37.339Z,3.89
2018-12-06T20:32:06.447Z,3.90
2018-12-06T20:34:35.513Z,3.90
2018-12-06T20:37:04.597Z,3.90
2018-12-06T20:39:33.734Z,3.89
2018-12-06T20:42:03.699Z,3.89
2018-12-06T20:44:32.759Z,3.89
2018-12-06T20:47:01.854Z,3.87
2018-12-06T20:49:30.926Z,3.92
2018-12-06T20:52:00.026Z,3.86
2018-12-06T20:54:29.068Z,3.89
2018-12-06T20:56:58.136Z,3.86
2018-12-06T20:59:27.209Z,3.83
2018-12-06T21:01:56.697Z,3.84
2018-12-06T21:04:25.751Z,3.87
2018-12-06T21:06:54.805Z,3.90
2018-12-06T21:09:23.897Z,3.82
2018-12-06T21:11:52.957Z,3.87
2018-12-06T21:14:22.234Z,3.88
2018-12-06T21:16:51.097Z,3.92
2018-12-06T21:19:20.155Z,3.97
2018-12-06T21:21:49.222Z,3.96
2018-12-06T21:24:18.316Z,3.99
2018-12-06T21:26:47.366Z,4.02
2018-12-06T21:29:16.429Z,4.03
2018-12-06T21:31:45.508Z,4.04
2018-12-06T21:34:14.559Z,4.05
2018-12-06T21:36:43.640Z,4.06
2018-12-06T21:39:12.747Z,4.05
2018-12-06T21:41:41.802Z,4.04
2018-12-06T21:44:10.861Z,4.03
2018-12-06T21:46:41.063Z,4.07
2018-12-06T21:49:10.169Z,4.00
2018-12-06T21:51:48.754Z,3.98
2018-12-06T21:54:16.596Z,4.03
2018-12-06T21:56:45.668Z,4.07
2018-12-06T21:59:14.734Z,4.10
2018-12-06T22:01:43.924Z,4.12
2018-12-06T22:04:12.988Z,4.01
2018-12-06T22:06:42.056Z,4.06
2018-12-06T22:09:11.134Z,4.10
2018-12-06T22:11:40.193Z,4.13
2018-12-06T22:14:09.247Z,4.17
2018-12-06T22:16:38.347Z,4.22
2018-12-06T22:19:07.421Z,4.24
2018-12-06T22:21:36.478Z,4.27
2018-12-06T22:24:05.580Z,4.29
2018-12-06T22:26:34.636Z,4.31
2018-12-06T22:29:03.703Z,4.32
2018-12-06T22:31:32.788Z,4.33
2018-12-06T22:34:01.862Z,4.32
2018-12-06T22:36:30.928Z,4.32
2018-12-06T22:39:00.074Z,4.31
2018-12-06T22:41:29.075Z,4.31
2018-12-06T22:43:58.137Z,4.34
2018-12-06T22:46:27.245Z,4.36
2018-12-06T22:48:56.295Z,4.36
2018-12-06T22:51:25.346Z,4.36
2018-12-06T22:53:54.428Z,4.37
2018-12-06T22:56:23.496Z,4.38
2018-12-06T22:58:52.555Z,4.37
2018-12-06T23:01:21.636Z,4.34
2018-12-06T23:03:50.700Z,4.34
2018-12-06T23:06:19.751Z,4.35
2018-12-06T23:08:48.876Z,4.35
2018-12-06T23:11:17.937Z,4.38
2018-12-06T23:13:47.001Z,4.37
2018-12-06T23:16:16.083Z,4.42
2018-12-06T23:18:45.126Z,4.43
2018-12-06T23:21:14.178Z,4.45
2018-12-06T23:23:43.262Z,4.46
2018-12-06T23:26:12.316Z,4.46
2018-12-06T23:28:41.365Z,4.46
2018-12-06T23:31:10.477Z,4.47
2018-12-06T23:33:39.543Z,4.49
2018-12-06T23:36:08.588Z,4.47
2018-12-06T23:38:37.705Z,4.46
2018-12-06T23:41:06.775Z,4.48
2018-12-06T23:43:35.835Z,4.47
2018-12-06T23:46:05.306Z,4.48
2018-12-06T23:48:34.349Z,4.49
2018-12-06T23:51:19.162Z,4.51
2018-12-06T23:53:48.220Z,4.52
2018-12-06T23:56:17.266Z,4.53
2018-12-06T23:58:46.339Z,4.55
